createdAt,value
2022-10-18T00:00:55.835Z,1010.25
2022-10-18T00:01:55.779Z,1010.21
2022-10-18T00:02:55.746Z,1010.20
2022-10-18T00:03:55.756Z,1010.23
2022-10-18T00:04:55.708Z,1010.24
2022-10-18T00:05:55.698Z,1010.25
2022-10-18T00:06:55.694Z,1010.27
2022-10-18T00:07:55.668Z,1010.25
2022-10-18T00:08:55.678Z,1010.27
2022-10-18T00:09:55.651Z,1010.30
2022-10-18T00:10:55.640Z,1010.29
2022-10-18T00:11:55.619Z,1010.30
2022-10-18T00:12:55.615Z,1010.30
2022-10-18T00:13:55.611Z,1010.32
2022-10-18T00:14:55.569Z,1010.34
2022-10-18T00:15:55.571Z,1010.33
2022-10-18T00:16:55.566Z,1010.34
2022-10-18T00:17:55.548Z,1010.33
2022-10-18T00:18:55.558Z,1010.38
2022-10-18T00:19:55.508Z,1010.37
2022-10-18T00:20:55.500Z,1010.36
2022-10-18T00:21:55.491Z,1010.37
2022-10-18T00:22:55.479Z,1010.40
2022-10-18T00:23:55.481Z,1010.37
2022-10-18T00:24:55.450Z,1010.34
2022-10-18T00:25:55.440Z,1010.38
2022-10-18T00:26:55.420Z,1010.39
2022-10-18T00:27:55.412Z,1010.32
2022-10-18T00:28:55.489Z,1010.32
2022-10-18T00:29:55.379Z,1010.26
2022-10-18T00:30:55.371Z,1010.26
2022-10-18T00:31:55.370Z,1010.20
2022-10-18T00:32:55.341Z,1010.23
2022-10-18T00:33:55.341Z,1010.21
2022-10-18T00:34:55.391Z,1010.19
2022-10-18T00:35:55.300Z,1010.20
2022-10-18T00:36:55.291Z,1010.16
2022-10-18T00:37:55.272Z,1010.16
2022-10-18T00:38:55.291Z,1010.13
2022-10-18T00:39:55.251Z,1010.10
2022-10-18T00:40:55.241Z,1010.15
2022-10-18T00:41:55.221Z,1010.11
2022-10-18T00:42:55.211Z,1010.12
2022-10-18T00:43:55.211Z,1010.10
2022-10-18T00:44:55.204Z,1010.09
2022-10-18T00:45:55.171Z,1010.08
2022-10-18T00:46:55.163Z,1010.00
2022-10-18T00:47:55.140Z,1010.02
2022-10-18T00:49:55.122Z,1009.94
2022-10-18T00:50:55.112Z,1009.91
2022-10-18T00:51:55.093Z,1009.85
2022-10-18T00:52:55.133Z,1009.88
2022-10-18T00:53:55.082Z,1009.87
2022-10-18T00:54:55.051Z,1009.88
2022-10-18T00:55:55.033Z,1009.88
2022-10-18T00:56:55.031Z,1009.86
2022-10-18T00:58:55.014Z,1009.84
2022-10-18T00:59:54.987Z,1009.84
2022-10-18T01:00:55.019Z,1009.85
2022-10-18T01:01:55.025Z,1009.90
2022-10-18T01:02:54.950Z,1009.85
2022-10-18T01:03:54.963Z,1009.85
2022-10-18T01:04:54.924Z,1009.85
2022-10-18T01:05:54.895Z,1009.81
2022-10-18T01:06:54.913Z,1009.79
2022-10-18T01:07:54.874Z,1009.77
2022-10-18T01:08:54.873Z,1009.78
2022-10-18T01:09:54.894Z,1009.77
2022-10-18T01:10:54.846Z,1009.74
2022-10-18T01:11:54.815Z,1009.75
2022-10-18T01:12:54.814Z,1009.73
2022-10-18T01:13:54.794Z,1009.73
2022-10-18T01:14:54.811Z,1009.73
2022-10-18T01:16:54.766Z,1009.70
2022-10-18T01:17:54.745Z,1009.68
2022-10-18T01:18:54.731Z,1009.67
2022-10-18T01:19:54.724Z,1009.69
2022-10-18T01:20:54.712Z,1009.66
2022-10-18T01:21:54.706Z,1009.65
2022-10-18T01:22:54.683Z,1009.65
2022-10-18T01:23:54.682Z,1009.64
2022-10-18T01:24:54.710Z,1009.61
2022-10-18T01:25:54.636Z,1009.59
2022-10-18T01:26:54.627Z,1009.62
2022-10-18T01:27:54.606Z,1009.63
2022-10-18T01:28:54.652Z,1009.64
2022-10-18T01:29:54.596Z,1009.66
2022-10-18T01:30:54.575Z,1009.65
2022-10-18T01:31:56.448Z,1009.70
2022-10-18T01:32:54.569Z,1009.72
2022-10-18T01:33:54.571Z,1009.73
2022-10-18T01:34:54.545Z,1009.72
2022-10-18T01:35:54.506Z,1009.70
2022-10-18T01:36:54.496Z,1009.70
2022-10-18T01:37:54.466Z,1009.63
2022-10-18T01:38:54.501Z,1009.61
2022-10-18T01:39:54.465Z,1009.64
2022-10-18T01:40:54.437Z,1009.63
2022-10-18T01:41:54.435Z,1009.61
2022-10-18T01:42:54.450Z,1009.66
2022-10-18T01:43:54.418Z,1009.70
2022-10-18T01:44:54.396Z,1009.74
2022-10-18T01:45:54.375Z,1009.76
2022-10-18T01:46:54.366Z,1009.79
2022-10-18T01:47:54.355Z,1009.81
2022-10-18T01:48:54.347Z,1009.84
2022-10-18T01:49:54.325Z,1009.87
2022-10-18T01:50:54.308Z,1009.86
2022-10-18T01:51:54.381Z,1009.91
2022-10-18T01:52:54.288Z,1009.95
2022-10-18T01:53:54.267Z,1009.98
2022-10-18T01:54:54.247Z,1010.04
2022-10-18T01:55:54.247Z,1010.04
2022-10-18T01:56:54.238Z,1010.03
2022-10-18T01:57:54.227Z,1010.04
2022-10-18T01:58:54.244Z,1010.03
2022-10-18T01:59:54.187Z,1010.04
2022-10-18T02:00:54.167Z,1010.02
2022-10-18T02:01:54.178Z,1010.00
2022-10-18T02:02:54.147Z,1010.01
2022-10-18T02:03:54.147Z,1010.04
2022-10-18T02:04:54.117Z,1010.04
2022-10-18T02:05:54.118Z,1010.03
2022-10-18T02:06:54.107Z,1010.00
2022-10-18T02:08:05.615Z,1009.98
2022-10-18T02:08:55.068Z,1009.91
2022-10-18T02:09:54.067Z,1009.91
2022-10-18T02:10:54.038Z,1009.86
2022-10-18T02:11:54.086Z,1009.80
2022-10-18T02:12:54.018Z,1009.77
2022-10-18T02:13:53.999Z,1009.74
2022-10-18T02:14:53.988Z,1009.77
2022-10-18T02:15:53.989Z,1009.77
2022-10-18T02:16:53.979Z,1009.80
2022-10-18T02:17:53.949Z,1009.83
2022-10-18T02:18:53.939Z,1009.85
2022-10-18T02:19:53.929Z,1009.85
2022-10-18T02:20:53.908Z,1009.88
2022-10-18T02:21:53.928Z,1009.93
2022-10-18T02:22:53.879Z,1009.93
2022-10-18T02:23:53.869Z,1009.95
2022-10-18T02:24:53.860Z,1009.93
2022-10-18T02:25:53.857Z,1009.93
2022-10-18T02:26:53.838Z,1009.86
2022-10-18T02:27:53.826Z,1009.87
2022-10-18T02:28:53.809Z,1009.87
2022-10-18T02:29:53.794Z,1009.82
2022-10-18T02:30:53.791Z,1009.84
2022-10-18T02:31:53.783Z,1009.86
2022-10-18T02:32:53.749Z,1009.84
2022-10-18T02:33:53.740Z,1009.83
2022-10-18T02:34:53.775Z,1009.83
2022-10-18T02:35:53.720Z,1009.80
2022-10-18T02:36:53.710Z,1009.82
2022-10-18T02:37:53.694Z,1009.87
2022-10-18T02:38:53.687Z,1009.85
2022-10-18T02:39:53.660Z,1009.87
2022-10-18T02:40:53.641Z,1009.87
2022-10-18T02:41:53.761Z,1009.91
2022-10-18T02:42:53.621Z,1009.90
2022-10-18T02:43:53.638Z,1009.93
2022-10-18T02:44:53.606Z,1009.99
2022-10-18T02:45:53.581Z,1009.96
2022-10-18T02:46:53.731Z,1009.98
2022-10-18T02:47:53.557Z,1009.90
2022-10-18T02:48:53.550Z,1009.92
2022-10-18T02:49:53.532Z,1009.91
2022-10-18T02:50:53.522Z,1009.94
2022-10-18T02:51:53.529Z,1009.98
2022-10-18T02:52:53.479Z,1010.04
2022-10-18T02:53:53.480Z,1010.07
2022-10-18T02:54:53.462Z,1010.08
2022-10-18T02:55:53.487Z,1010.09
2022-10-18T02:56:53.476Z,1010.12
2022-10-18T02:57:53.423Z,1010.09
2022-10-18T02:58:53.411Z,1010.06
2022-10-18T02:59:53.392Z,1010.05
2022-10-18T03:00:53.402Z,1010.04
2022-10-18T03:01:53.498Z,1010.04
2022-10-18T03:02:53.359Z,1010.01
2022-10-18T03:03:53.364Z,1010.03
2022-10-18T03:04:53.333Z,1009.99
2022-10-18T03:05:53.313Z,1009.99
2022-10-18T03:06:53.320Z,1009.98
2022-10-18T03:07:53.293Z,1010.00
2022-10-18T03:08:53.272Z,1010.00
2022-10-18T03:09:53.264Z,1009.99
2022-10-18T03:10:53.244Z,1009.94
2022-10-18T03:11:53.253Z,1009.95
2022-10-18T03:12:53.221Z,1009.94
2022-10-18T03:13:53.222Z,1009.96
2022-10-18T03:14:53.194Z,1009.95
2022-10-18T03:15:53.186Z,1009.95
2022-10-18T03:16:53.174Z,1009.95
2022-10-18T03:17:53.164Z,1009.92
2022-10-18T03:18:53.141Z,1009.98
2022-10-18T03:19:53.141Z,1009.95
2022-10-18T03:20:53.116Z,1009.95
2022-10-18T03:21:53.114Z,1009.87
2022-10-18T03:22:53.095Z,1009.92
2022-10-18T03:23:53.065Z,1009.87
2022-10-18T03:24:53.063Z,1009.83
2022-10-18T03:25:53.053Z,1009.78
2022-10-18T03:26:53.066Z,1009.77
2022-10-18T03:27:53.022Z,1009.80
2022-10-18T03:28:53.060Z,1009.85
2022-10-18T03:29:52.988Z,1009.88
2022-10-18T03:30:52.985Z,1009.84
2022-10-18T03:31:53.005Z,1009.85
2022-10-18T03:32:53.130Z,1009.86
2022-10-18T03:33:52.947Z,1009.83
2022-10-18T03:34:52.926Z,1009.83
2022-10-18T03:35:52.935Z,1009.82
2022-10-18T03:36:53.025Z,1009.86
2022-10-18T03:37:52.886Z,1009.83
2022-10-18T03:38:52.892Z,1009.79
2022-10-18T03:39:52.856Z,1009.82
2022-10-18T03:40:52.855Z,1009.78
2022-10-18T03:41:52.995Z,1009.75
2022-10-18T03:42:52.825Z,1009.74
2022-10-18T03:43:52.807Z,1009.74
2022-10-18T03:44:52.803Z,1009.74
2022-10-18T03:45:52.779Z,1009.74
2022-10-18T03:46:52.796Z,1009.72
2022-10-18T03:47:52.757Z,1009.75
2022-10-18T03:48:52.765Z,1009.75
2022-10-18T03:49:56.232Z,1009.74
2022-10-18T03:50:52.724Z,1009.76
2022-10-18T03:51:52.727Z,1009.71
2022-10-18T03:52:52.695Z,1009.71
2022-10-18T03:53:52.717Z,1009.71
2022-10-18T03:54:52.657Z,1009.70
2022-10-18T03:55:52.651Z,1009.68
2022-10-18T03:56:52.637Z,1009.72
2022-10-18T03:57:52.636Z,1009.71
2022-10-18T03:58:52.619Z,1009.73
2022-10-18T03:59:52.579Z,1009.75
2022-10-18T04:00:52.695Z,1009.73
2022-10-18T04:01:52.636Z,1009.73
2022-10-18T04:02:55.120Z,1009.73
2022-10-18T04:03:52.536Z,1009.74
2022-10-18T04:04:52.528Z,1009.75
2022-10-18T04:05:52.517Z,1009.74
2022-10-18T04:06:52.499Z,1009.77
2022-10-18T04:07:52.508Z,1009.79
2022-10-18T04:08:52.487Z,1009.76
2022-10-18T04:09:52.458Z,1009.76
2022-10-18T04:10:52.457Z,1009.74
2022-10-18T04:11:52.441Z,1009.77
2022-10-18T04:12:52.447Z,1009.77
2022-10-18T04:13:52.418Z,1009.75
2022-10-18T04:14:52.399Z,1009.74
2022-10-18T04:15:52.378Z,1009.76
2022-10-18T04:16:52.430Z,1009.73
2022-10-18T04:17:52.382Z,1009.80
2022-10-18T04:18:52.339Z,1009.78
2022-10-18T04:19:52.351Z,1009.77
2022-10-18T04:20:52.319Z,1009.82
2022-10-18T04:21:52.308Z,1009.80
2022-10-18T04:22:52.312Z,1009.83
2022-10-18T04:23:52.289Z,1009.79
2022-10-18T04:24:52.273Z,1009.81
2022-10-18T04:25:52.270Z,1009.82
2022-10-18T04:26:52.241Z,1009.86
2022-10-18T04:27:52.240Z,1009.84
2022-10-18T04:28:52.270Z,1009.84
2022-10-18T04:29:52.199Z,1009.82
2022-10-18T04:30:52.195Z,1009.86
2022-10-18T04:31:52.170Z,1009.83
2022-10-18T04:32:52.194Z,1009.83
2022-10-18T04:33:52.150Z,1009.86
2022-10-18T04:34:52.146Z,1009.86
2022-10-18T04:35:52.121Z,1009.85
2022-10-18T04:36:52.113Z,1009.88
2022-10-18T04:37:52.150Z,1009.89
2022-10-18T04:38:52.091Z,1009.87
2022-10-18T04:39:53.718Z,1009.85
2022-10-18T04:40:52.062Z,1009.86
2022-10-18T04:41:52.039Z,1009.85
2022-10-18T04:42:52.052Z,1009.86
2022-10-18T04:43:52.005Z,1009.86
2022-10-18T04:44:52.011Z,1009.86
2022-10-18T04:45:51.982Z,1009.88
2022-10-18T04:46:51.972Z,1009.88
2022-10-18T04:47:52.031Z,1009.89
2022-10-18T04:48:51.952Z,1009.91
2022-10-18T04:49:51.942Z,1009.88
2022-10-18T04:50:51.922Z,1009.89
2022-10-18T04:51:51.911Z,1009.90
2022-10-18T04:52:51.931Z,1009.90
2022-10-18T04:53:51.893Z,1009.90
2022-10-18T04:54:51.872Z,1009.91
2022-10-18T04:55:51.882Z,1009.98
2022-10-18T04:56:51.850Z,1009.92
2022-10-18T04:57:51.844Z,1009.88
2022-10-18T04:58:51.832Z,1009.92
2022-10-18T04:59:51.809Z,1009.94
2022-10-18T05:00:51.791Z,1009.91
2022-10-18T05:01:51.848Z,1009.89
2022-10-18T05:02:51.774Z,1009.90
2022-10-18T05:03:51.744Z,1009.91
2022-10-18T05:04:51.807Z,1009.90
2022-10-18T05:06:06.740Z,1009.93
2022-10-18T05:06:52.711Z,1009.91
2022-10-18T05:07:51.704Z,1009.90
2022-10-18T05:08:51.683Z,1009.92
2022-10-18T05:09:51.663Z,1009.89
2022-10-18T05:10:51.663Z,1009.89
2022-10-18T05:11:51.648Z,1009.90
2022-10-18T05:12:51.652Z,1009.90
2022-10-18T05:13:51.614Z,1009.92
2022-10-18T05:14:51.604Z,1009.93
2022-10-18T05:15:51.584Z,1009.89
2022-10-18T05:16:51.580Z,1009.91
2022-10-18T05:17:51.564Z,1009.92
2022-10-18T05:18:51.534Z,1009.89
2022-10-18T05:19:51.535Z,1009.87
2022-10-18T05:20:51.708Z,1009.87
2022-10-18T05:21:51.507Z,1009.89
2022-10-18T05:22:51.506Z,1009.87
2022-10-18T05:23:51.475Z,1009.92
2022-10-18T05:24:51.468Z,1009.90
2022-10-18T05:25:51.445Z,1009.87
2022-10-18T05:26:51.445Z,1009.91
2022-10-18T05:27:51.436Z,1009.90
2022-10-18T05:28:51.454Z,1009.96
2022-10-18T05:29:51.404Z,1009.90
2022-10-18T05:30:51.386Z,1009.87
2022-10-18T05:31:51.373Z,1009.89
2022-10-18T05:32:51.356Z,1009.86
2022-10-18T05:33:51.358Z,1009.83
2022-10-18T05:34:51.347Z,1009.85
2022-10-18T05:35:51.324Z,1009.87
2022-10-18T05:36:51.328Z,1009.86
2022-10-18T05:37:51.304Z,1009.86
2022-10-18T05:38:51.297Z,1009.86
2022-10-18T05:39:51.267Z,1009.83
2022-10-18T05:40:51.257Z,1009.80
2022-10-18T05:41:51.249Z,1009.85
2022-10-18T05:42:51.236Z,1009.83
2022-10-18T05:43:51.249Z,1009.86
2022-10-18T05:44:51.219Z,1009.84
2022-10-18T05:45:51.198Z,1009.88
2022-10-18T05:46:51.187Z,1009.90
2022-10-18T05:47:51.180Z,1009.91
2022-10-18T05:48:51.183Z,1009.87
2022-10-18T05:49:51.150Z,1009.91
2022-10-18T05:50:51.149Z,1009.88
2022-10-18T05:51:51.109Z,1009.87
2022-10-18T05:52:51.146Z,1009.91
2022-10-18T05:53:51.118Z,1009.87
2022-10-18T05:54:51.086Z,1009.90
2022-10-18T05:55:51.073Z,1009.89
2022-10-18T05:56:51.049Z,1009.91
2022-10-18T05:57:51.029Z,1009.91
2022-10-18T05:58:51.038Z,1009.91
2022-10-18T05:59:50.989Z,1009.92
2022-10-18T06:00:50.998Z,1009.95
2022-10-18T06:01:51.039Z,1009.92
2022-10-18T06:02:51.043Z,1009.95
2022-10-18T06:03:50.969Z,1009.97
2022-10-18T06:04:50.954Z,1009.96
2022-10-18T06:05:50.939Z,1009.99
2022-10-18T06:06:50.911Z,1010.01
2022-10-18T06:07:50.903Z,1010.01
2022-10-18T06:08:50.899Z,1010.03
2022-10-18T06:09:50.869Z,1010.04
2022-10-18T06:10:50.860Z,1010.07
2022-10-18T06:11:50.850Z,1010.07
2022-10-18T06:12:50.849Z,1010.09
2022-10-18T06:13:50.844Z,1010.09
2022-10-18T06:14:50.814Z,1010.09
2022-10-18T06:15:50.792Z,1010.15
2022-10-18T06:16:50.803Z,1010.16
2022-10-18T06:17:50.786Z,1010.15
2022-10-18T06:18:50.773Z,1010.14
2022-10-18T06:19:50.751Z,1010.14
2022-10-18T06:20:50.739Z,1010.13
2022-10-18T06:21:50.721Z,1010.16
2022-10-18T06:22:50.721Z,1010.16
2022-10-18T06:23:50.691Z,1010.15
2022-10-18T06:24:55.069Z,1010.17
2022-10-18T06:25:51.681Z,1010.15
2022-10-18T06:26:50.642Z,1010.16
2022-10-18T06:27:50.651Z,1010.16
2022-10-18T06:28:50.695Z,1010.17
2022-10-18T06:29:50.612Z,1010.18
2022-10-18T06:30:50.592Z,1010.15
2022-10-18T06:31:50.590Z,1010.16
2022-10-18T06:32:50.596Z,1010.16
2022-10-18T06:33:50.561Z,1010.17
2022-10-18T06:34:50.554Z,1010.20
2022-10-18T06:35:50.530Z,1010.24
2022-10-18T06:36:53.806Z,1010.24
2022-10-18T06:37:51.524Z,1010.22
2022-10-18T06:38:50.503Z,1010.22
2022-10-18T06:39:50.482Z,1010.21
2022-10-18T06:40:50.472Z,1010.21
2022-10-18T06:41:50.544Z,1010.19
2022-10-18T06:43:00.022Z,1010.25
2022-10-18T06:43:51.423Z,1010.29
2022-10-18T06:44:50.414Z,1010.28
2022-10-18T06:45:50.403Z,1010.30
2022-10-18T06:46:50.943Z,1010.25
2022-10-18T06:47:50.363Z,1010.27
2022-10-18T06:48:50.378Z,1010.30
2022-10-18T06:49:50.354Z,1010.29
2022-10-18T06:50:50.334Z,1010.31
2022-10-18T06:51:50.321Z,1010.37
2022-10-18T06:52:50.314Z,1010.35
2022-10-18T06:54:05.913Z,1010.41
2022-10-18T06:54:51.274Z,1010.36
2022-10-18T06:55:50.267Z,1010.38
2022-10-18T06:56:50.253Z,1010.43
2022-10-18T06:57:50.225Z,1010.43
2022-10-18T06:58:50.262Z,1010.45
2022-10-18T06:59:50.214Z,1010.43
2022-10-18T07:00:50.205Z,1010.49
2022-10-18T07:01:50.230Z,1010.44
2022-10-18T07:02:50.175Z,1010.49
2022-10-18T07:03:50.166Z,1010.47
2022-10-18T07:04:50.159Z,1010.48
2022-10-18T07:05:50.191Z,1010.51
2022-10-18T07:06:50.126Z,1010.55
2022-10-18T07:07:54.214Z,1010.50
2022-10-18T07:08:51.115Z,1010.54
2022-10-18T07:09:50.106Z,1010.53
2022-10-18T07:10:50.076Z,1010.58
2022-10-18T07:11:50.046Z,1010.56
2022-10-18T07:12:51.581Z,1010.62
2022-10-18T07:13:50.055Z,1010.65
2022-10-18T07:14:50.033Z,1010.67
2022-10-18T07:15:49.997Z,1010.69
2022-10-18T07:16:49.996Z,1010.71
2022-10-18T07:17:49.976Z,1010.70
2022-10-18T07:18:49.987Z,1010.72
2022-10-18T07:19:49.948Z,1010.69
2022-10-18T07:20:49.936Z,1010.70
2022-10-18T07:21:49.916Z,1010.71
2022-10-18T07:22:49.917Z,1010.71
2022-10-18T07:23:49.915Z,1010.72
2022-10-18T07:24:49.897Z,1010.71
2022-10-18T07:25:49.870Z,1010.75
2022-10-18T07:26:49.868Z,1010.74
2022-10-18T07:27:49.837Z,1010.76
2022-10-18T07:28:49.961Z,1010.70
2022-10-18T07:29:49.816Z,1010.68
2022-10-18T07:30:49.804Z,1010.62
2022-10-18T07:31:49.788Z,1010.62
2022-10-18T07:32:49.769Z,1010.61
2022-10-18T07:33:49.778Z,1010.61
2022-10-18T07:34:49.761Z,1010.61
2022-10-18T07:35:49.738Z,1010.64
2022-10-18T07:36:49.719Z,1010.64
2022-10-18T07:37:49.714Z,1010.65
2022-10-18T07:38:49.715Z,1010.70
2022-10-18T07:39:49.678Z,1010.64
2022-10-18T07:40:49.678Z,1010.68
2022-10-18T07:41:49.658Z,1010.66
2022-10-18T07:42:51.392Z,1010.69
2022-10-18T07:43:49.837Z,1010.69
2022-10-18T07:44:49.617Z,1010.70
2022-10-18T07:45:49.599Z,1010.72
2022-10-18T07:46:49.609Z,1010.69
2022-10-18T07:47:49.616Z,1010.72
2022-10-18T07:48:49.603Z,1010.73
2022-10-18T07:49:49.580Z,1010.68
2022-10-18T07:50:49.541Z,1010.71
2022-10-18T07:51:49.520Z,1010.71
2022-10-18T07:52:49.509Z,1010.68
2022-10-18T07:53:49.526Z,1010.68
2022-10-18T07:55:50.476Z,1010.70
2022-10-18T07:56:49.531Z,1010.71
2022-10-18T07:57:49.660Z,1010.71
2022-10-18T07:58:49.430Z,1010.72
2022-10-18T07:59:49.440Z,1010.80
2022-10-18T08:00:49.410Z,1010.80
2022-10-18T08:01:49.418Z,1010.84
2022-10-18T08:02:49.381Z,1010.84
2022-10-18T08:03:49.379Z,1010.84
2022-10-18T08:04:49.369Z,1010.89
2022-10-18T08:05:49.470Z,1010.95
2022-10-18T08:06:49.351Z,1010.97
2022-10-18T08:07:49.320Z,1010.97
2022-10-18T08:08:49.300Z,1011.02
2022-10-18T08:09:49.385Z,1011.08
2022-10-18T08:10:49.340Z,1011.06
2022-10-18T08:11:49.264Z,1011.08
2022-10-18T08:12:49.265Z,1011.04
2022-10-18T08:13:49.252Z,1011.03
2022-10-18T08:14:49.244Z,1010.99
2022-10-18T08:15:49.217Z,1011.04
2022-10-18T08:16:49.201Z,1011.01
2022-10-18T08:17:49.185Z,1011.05
2022-10-18T08:18:49.162Z,1011.02
2022-10-18T08:19:58.543Z,1011.04
2022-10-18T08:20:50.128Z,1011.08
2022-10-18T08:21:49.232Z,1011.06
2022-10-18T08:22:49.196Z,1011.07
2022-10-18T08:23:49.104Z,1011.06
2022-10-18T08:24:49.100Z,1011.05
2022-10-18T08:25:49.116Z,1011.03
2022-10-18T08:26:49.062Z,1011.06
2022-10-18T08:27:49.072Z,1011.07
2022-10-18T08:28:53.963Z,1011.03
2022-10-18T08:29:50.183Z,1011.08
2022-10-18T08:30:49.018Z,1011.09
2022-10-18T08:31:49.014Z,1011.08
2022-10-18T08:32:49.003Z,1011.09
2022-10-18T08:33:49.023Z,1011.12
2022-10-18T08:34:48.966Z,1011.10
2022-10-18T08:35:48.943Z,1011.13
2022-10-18T08:36:48.942Z,1011.13
2022-10-18T08:37:48.915Z,1011.11
2022-10-18T08:38:48.904Z,1011.10
2022-10-18T08:39:48.905Z,1011.10
2022-10-18T08:40:48.883Z,1011.10
2022-10-18T08:41:48.875Z,1011.10
2022-10-18T08:42:48.854Z,1011.09
2022-10-18T08:43:48.835Z,1011.11
2022-10-18T08:44:48.849Z,1011.13
2022-10-18T08:45:48.804Z,1011.13
2022-10-18T08:46:48.801Z,1011.12
2022-10-18T08:47:48.793Z,1011.10
2022-10-18T08:48:48.791Z,1011.14
2022-10-18T08:49:48.828Z,1011.15
2022-10-18T08:50:48.744Z,1011.19
2022-10-18T08:51:48.748Z,1011.19
2022-10-18T08:52:48.715Z,1011.22
2022-10-18T08:53:48.693Z,1011.22
2022-10-18T08:54:48.753Z,1011.23
2022-10-18T08:55:48.672Z,1011.26
2022-10-18T08:56:48.654Z,1011.27
2022-10-18T08:57:48.657Z,1011.28
2022-10-18T08:58:48.636Z,1011.30
2022-10-18T08:59:48.646Z,1011.30
2022-10-18T09:00:48.616Z,1011.31
2022-10-18T09:02:48.586Z,1011.30
2022-10-18T09:03:48.635Z,1011.30
2022-10-18T09:04:48.574Z,1011.28
2022-10-18T09:05:48.546Z,1011.28
2022-10-18T09:06:48.525Z,1011.22
2022-10-18T09:07:48.515Z,1011.21
2022-10-18T09:08:48.507Z,1011.25
2022-10-18T09:09:48.486Z,1011.23
2022-10-18T09:10:48.522Z,1011.23
2022-10-18T09:11:48.486Z,1011.25
2022-10-18T09:12:48.447Z,1011.26
2022-10-18T09:13:48.425Z,1011.26
2022-10-18T09:14:48.857Z,1011.27
2022-10-18T09:15:48.427Z,1011.28
2022-10-18T09:16:48.398Z,1011.24
2022-10-18T09:17:48.378Z,1011.27
2022-10-18T09:18:48.357Z,1011.27
2022-10-18T09:19:48.413Z,1011.30
2022-10-18T09:20:48.358Z,1011.30
2022-10-18T09:21:48.334Z,1011.33
2022-10-18T09:22:48.320Z,1011.32
2022-10-18T09:23:48.296Z,1011.35
2022-10-18T09:24:48.287Z,1011.39
2022-10-18T09:25:48.282Z,1011.36
2022-10-18T09:26:48.256Z,1011.39
2022-10-18T09:27:48.247Z,1011.39
2022-10-18T09:28:48.283Z,1011.37
2022-10-18T09:29:48.221Z,1011.39
2022-10-18T09:30:48.227Z,1011.44
2022-10-18T09:31:48.197Z,1011.41
2022-10-18T09:32:48.184Z,1011.41
2022-10-18T09:33:48.182Z,1011.41
2022-10-18T09:34:48.207Z,1011.42
2022-10-18T09:35:48.148Z,1011.45
2022-10-18T09:36:48.128Z,1011.40
2022-10-18T09:37:48.119Z,1011.40
2022-10-18T09:38:48.090Z,1011.41
2022-10-18T09:39:48.096Z,1011.46
2022-10-18T09:40:48.090Z,1011.42
2022-10-18T09:41:48.048Z,1011.45
2022-10-18T09:42:48.059Z,1011.44
2022-10-18T09:43:48.049Z,1011.46
2022-10-18T09:44:48.019Z,1011.43
2022-10-18T09:45:48.020Z,1011.45
2022-10-18T09:46:48.075Z,1011.47
2022-10-18T09:47:47.990Z,1011.50
2022-10-18T09:48:47.988Z,1011.48
2022-10-18T09:49:47.979Z,1011.46
2022-10-18T09:50:47.998Z,1011.48
2022-10-18T09:51:47.931Z,1011.49
2022-10-18T09:52:47.899Z,1011.49
2022-10-18T09:53:47.899Z,1011.51
2022-10-18T09:54:48.003Z,1011.48
2022-10-18T09:55:47.891Z,1011.47
2022-10-18T09:56:47.908Z,1011.44
2022-10-18T09:57:47.850Z,1011.46
2022-10-18T09:58:47.816Z,1011.46
2022-10-18T09:59:47.829Z,1011.47
2022-10-18T10:00:47.811Z,1011.48
2022-10-18T10:01:47.793Z,1011.51
2022-10-18T10:02:47.860Z,1011.51
2022-10-18T10:03:47.827Z,1011.53
2022-10-18T10:04:48.514Z,1011.54
2022-10-18T10:05:47.761Z,1011.54
2022-10-18T10:06:47.724Z,1011.52
2022-10-18T10:07:47.702Z,1011.57
2022-10-18T10:08:47.704Z,1011.53
2022-10-18T10:09:47.684Z,1011.62
2022-10-18T10:10:47.693Z,1011.60
2022-10-18T10:11:47.652Z,1011.65
2022-10-18T10:12:47.739Z,1011.62
2022-10-18T10:13:47.672Z,1011.63
2022-10-18T10:14:47.614Z,1011.57
2022-10-18T10:15:47.631Z,1011.61
2022-10-18T10:16:47.593Z,1011.59
2022-10-18T10:17:47.582Z,1011.63
2022-10-18T10:18:47.571Z,1011.65
2022-10-18T10:19:47.554Z,1011.64
2022-10-18T10:20:47.570Z,1011.70
2022-10-18T10:21:47.544Z,1011.66
2022-10-18T10:22:47.514Z,1011.67
2022-10-18T10:23:47.512Z,1011.69
2022-10-18T10:24:47.484Z,1011.68
2022-10-18T10:25:47.514Z,1011.69
2022-10-18T10:26:47.453Z,1011.70
2022-10-18T10:27:47.444Z,1011.70
2022-10-18T10:28:47.532Z,1011.69
2022-10-18T10:29:47.491Z,1011.74
2022-10-18T10:30:47.425Z,1011.76
2022-10-18T10:31:47.486Z,1011.74
2022-10-18T10:32:47.467Z,1011.71
2022-10-18T10:33:47.366Z,1011.72
2022-10-18T10:34:47.357Z,1011.77
2022-10-18T10:35:53.616Z,1011.76
2022-10-18T10:36:48.325Z,1011.74
2022-10-18T10:37:47.316Z,1011.74
2022-10-18T10:38:47.315Z,1011.72
2022-10-18T10:39:55.470Z,1011.72
2022-10-18T10:40:48.286Z,1011.72
2022-10-18T10:41:47.256Z,1011.69
2022-10-18T10:42:47.246Z,1011.69
2022-10-18T10:43:47.239Z,1011.69
2022-10-18T10:44:47.260Z,1011.70
2022-10-18T10:45:47.206Z,1011.65
2022-10-18T10:46:47.856Z,1011.70
2022-10-18T10:47:47.187Z,1011.67
2022-10-18T10:48:47.166Z,1011.68
2022-10-18T10:49:47.158Z,1011.69
2022-10-18T10:50:47.148Z,1011.71
2022-10-18T10:51:53.713Z,1011.71
2022-10-18T10:52:48.296Z,1011.71
2022-10-18T10:53:47.152Z,1011.73
2022-10-18T10:54:51.154Z,1011.73
2022-10-18T10:55:48.076Z,1011.75
2022-10-18T10:56:47.077Z,1011.73
2022-10-18T10:57:47.059Z,1011.74
2022-10-18T10:58:47.028Z,1011.70
2022-10-18T10:59:47.032Z,1011.67
2022-10-18T11:00:47.010Z,1011.68
2022-10-18T11:01:47.017Z,1011.69
2022-10-18T11:02:59.244Z,1011.67
2022-10-18T11:03:48.017Z,1011.66
2022-10-18T11:04:46.948Z,1011.65
2022-10-18T11:05:46.978Z,1011.70
2022-10-18T11:06:46.960Z,1011.68
2022-10-18T11:07:46.968Z,1011.69
2022-10-18T11:08:46.910Z,1011.69
2022-10-18T11:09:46.909Z,1011.70
2022-10-18T11:10:46.877Z,1011.72
2022-10-18T11:11:46.878Z,1011.70
2022-10-18T11:12:46.870Z,1011.66
2022-10-18T11:13:49.984Z,1011.62
2022-10-18T11:14:47.830Z,1011.67
2022-10-18T11:15:46.830Z,1011.67
2022-10-18T11:16:46.857Z,1011.68
2022-10-18T11:17:46.864Z,1011.72
2022-10-18T11:18:46.759Z,1011.70
2022-10-18T11:19:46.762Z,1011.73
2022-10-18T11:20:46.748Z,1011.70
2022-10-18T11:21:46.740Z,1011.69
2022-10-18T11:22:46.775Z,1011.73
2022-10-18T11:23:46.710Z,1011.70
2022-10-18T11:24:46.700Z,1011.70
2022-10-18T11:25:46.680Z,1011.75
2022-10-18T11:26:49.966Z,1011.72
2022-10-18T11:27:47.691Z,1011.70
2022-10-18T11:28:46.684Z,1011.71
2022-10-18T11:29:46.639Z,1011.71
2022-10-18T11:30:46.622Z,1011.73
2022-10-18T11:31:46.612Z,1011.70
2022-10-18T11:32:46.602Z,1011.70
2022-10-18T11:34:07.662Z,1011.69
2022-10-18T11:34:47.584Z,1011.68
2022-10-18T11:35:46.565Z,1011.71
2022-10-18T11:36:56.124Z,1011.69
2022-10-18T11:37:47.545Z,1011.69
2022-10-18T11:38:46.504Z,1011.66
2022-10-18T11:39:46.503Z,1011.68
2022-10-18T11:40:46.480Z,1011.63
2022-10-18T11:41:46.475Z,1011.69
2022-10-18T11:42:46.471Z,1011.70
2022-10-18T11:44:01.593Z,1011.71
2022-10-18T11:44:47.431Z,1011.70
2022-10-18T11:45:46.425Z,1011.71
2022-10-18T11:46:46.404Z,1011.69
2022-10-18T11:47:46.412Z,1011.71
2022-10-18T11:48:46.384Z,1011.71
2022-10-18T11:49:46.364Z,1011.70
2022-10-18T11:50:46.365Z,1011.72
2022-10-18T11:52:03.624Z,1011.66
2022-10-18T11:52:47.454Z,1011.66
2022-10-18T11:53:51.640Z,1011.65
2022-10-18T11:54:47.293Z,1011.62
2022-10-18T11:55:46.275Z,1011.60
2022-10-18T11:56:46.277Z,1011.62
2022-10-18T11:57:46.273Z,1011.60
2022-10-18T11:58:46.244Z,1011.57
2022-10-18T11:59:46.232Z,1011.62
2022-10-18T12:00:46.226Z,1011.57
2022-10-18T12:01:46.196Z,1011.61
2022-10-18T12:02:46.263Z,1011.59
2022-10-18T12:03:46.177Z,1011.58
2022-10-18T12:04:58.487Z,1011.59
2022-10-18T12:05:47.136Z,1011.57
2022-10-18T12:06:46.144Z,1011.58
2022-10-18T12:07:46.157Z,1011.56
2022-10-18T12:08:46.116Z,1011.54
2022-10-18T12:09:46.258Z,1011.55
2022-10-18T12:11:04.175Z,1011.55